Charlestown, RI

12:13 PM EDT on July 27, 2016 (GMT -0400)
| | Change Station

Elev -9999 ft 0.00 °N, 0.00 °E | Updated

Clear
Clear
84 °F
Feels Like 84 °F
N
11
Wind Variable Wind from SSW
Gusts mph

Today
High -- | Low -- °F
--% Chance of Precip.
Yesterday
High -- | Low -- °F
Precip. -- in
Pressure 29.92 in
Visibility 10.0 miles
Clouds Clear
Heat Index 84 °F
Dew Point 61 °F
Humidity 45%
Rainfall --
Snow Depth Not available.
5:37 AM 8:08 PM
Last Quarter, 42% visible
METAR KUUU 271553Z AUTO 29003KT 10SM CLR 29/17 A2993 RMK AO2 SLP131 T02940167
Pressure 29.92 in
Visibility 10.0 miles
Clouds Clear
Heat Index 84 °F
Dew Point 61 °F
Humidity 45%
Rainfall --
Snow Depth Not available.
5:37 AM 8:08 PM
Last Quarter, 42% visible
METAR KUUU 271553Z AUTO 29003KT 10SM CLR 29/17 A2993 RMK AO2 SLP131 T02940167

10-Day Weather Forecast

Almanac

Astronomy

Jul. 27, 2016 Rise Set
Actual Time
Civil Twilight
Nautical Twilight
Astronomical Twilight
Moon
Length of Visible Light
Length of Day
Tomorrow will be .
, % of the Moon is Illuminated

Today's Extremes

State Highs State Lows

Community

WunderPhotos

Upload Photos

1,927,877 photos uploaded!

WunderBlog® & News

Nearby

Air Quality

  Air Quality AQ Index Pollutant
Not available.

Snow Depth

Station Depth Elevation

Earthquake Activity

City Distance Mag. Time & Date
Minimum magnitude displayed is 2.5.

Coastal Water Temperatures

Place Temperature

Stations

Nearby Weather Stations

Station Location Temp. Windchill Dew Point Humidity Wind Precip. Elev Updated Type
                   

Watches & Warnings

There are currently no watches in effect.